createdAt,value
2018-12-26T00:01:19.457Z,68.37
2018-12-26T00:03:47.852Z,65.17
2018-12-26T00:06:16.190Z,59.53
2018-12-26T00:08:44.637Z,61.77
2018-12-26T00:11:12.894Z,61.80
2018-12-26T00:13:41.102Z,61.07
2018-12-26T00:16:10.648Z,59.03
2018-12-26T00:18:38.960Z,58.80
2018-12-26T00:21:07.256Z,59.77
2018-12-26T00:23:35.535Z,62.63
2018-12-26T00:26:03.811Z,64.53
2018-12-26T00:28:32.255Z,58.17
2018-12-26T00:31:00.650Z,57.53
2018-12-26T00:33:29.053Z,62.10
2018-12-26T00:35:57.295Z,63.97
2018-12-26T00:38:25.552Z,59.63
2018-12-26T00:40:53.801Z,58.57
2018-12-26T00:43:22.091Z,64.80
2018-12-26T00:45:50.379Z,69.40
2018-12-26T00:48:18.626Z,72.87
2018-12-26T00:50:46.964Z,68.67
2018-12-26T00:53:15.245Z,62.17
2018-12-26T00:55:43.528Z,59.20
2018-12-26T00:58:11.777Z,58.90
2018-12-26T01:00:40.093Z,57.53
2018-12-26T01:03:08.391Z,60.03
2018-12-26T01:05:36.705Z,65.97
2018-12-26T01:08:05.151Z,66.43
2018-12-26T01:10:33.411Z,63.93
2018-12-26T01:13:01.695Z,62.17
2018-12-26T01:15:29.964Z,61.77
2018-12-26T01:17:58.323Z,61.40
2018-12-26T01:20:26.605Z,63.00
2018-12-26T01:25:23.504Z,52.33
2018-12-26T01:27:51.825Z,54.20
2018-12-26T01:30:20.081Z,49.33
2018-12-26T01:32:49.958Z,56.57
2018-12-26T01:35:18.397Z,52.47
2018-12-26T01:37:46.696Z,55.30
2018-12-26T01:40:15.000Z,57.60
2018-12-26T01:42:43.249Z,57.23
2018-12-26T01:45:11.550Z,61.67
2018-12-26T01:47:39.893Z,56.57
2018-12-26T01:50:08.153Z,56.20
2018-12-26T01:52:36.482Z,49.40
2018-12-26T01:55:05.505Z,49.63
2018-12-26T01:57:33.814Z,50.63
2018-12-26T02:00:02.069Z,53.07
2018-12-26T02:02:30.461Z,53.20
2018-12-26T02:04:58.738Z,50.20
2018-12-26T02:07:26.991Z,56.27
2018-12-26T02:09:55.268Z,55.77
2018-12-26T02:12:23.550Z,54.20
2018-12-26T02:14:51.809Z,52.00
2018-12-26T02:17:20.090Z,55.87
2018-12-26T02:19:48.354Z,50.03
2018-12-26T02:22:16.728Z,55.23
2018-12-26T02:24:44.984Z,53.63
2018-12-26T02:27:13.237Z,51.57
2018-12-26T02:29:41.501Z,58.73
2018-12-26T02:32:09.762Z,54.47
2018-12-26T02:34:38.057Z,62.27
2018-12-26T02:37:06.314Z,54.57
2018-12-26T02:39:34.638Z,58.07
2018-12-26T02:42:02.911Z,60.37
2018-12-26T02:44:31.237Z,63.53
2018-12-26T02:46:59.538Z,58.67
2018-12-26T02:49:27.831Z,55.10
2018-12-26T02:51:56.184Z,58.43
2018-12-26T02:54:24.443Z,58.03
2018-12-26T02:56:52.714Z,57.57
2018-12-26T02:59:21.087Z,49.37
2018-12-26T03:01:49.455Z,49.13
2018-12-26T03:04:17.650Z,53.43
2018-12-26T03:06:46.013Z,52.30
2018-12-26T03:09:14.284Z,58.70
2018-12-26T03:11:42.609Z,50.70
2018-12-26T03:14:10.886Z,47.83
2018-12-26T03:16:39.156Z,46.43
2018-12-26T03:19:07.451Z,49.53
2018-12-26T03:21:35.912Z,57.67
2018-12-26T03:24:04.274Z,52.10
2018-12-26T03:26:32.532Z,53.60
2018-12-26T03:29:00.802Z,54.33
2018-12-26T03:31:29.102Z,59.73
2018-12-26T03:33:57.390Z,54.20
2018-12-26T03:36:26.076Z,54.57
2018-12-26T03:38:56.007Z,56.17
2018-12-26T03:41:24.346Z,49.73
2018-12-26T03:43:55.098Z,50.33
2018-12-26T03:46:22.672Z,50.87
2018-12-26T03:48:50.962Z,45.73
2018-12-26T03:51:19.234Z,46.43
2018-12-26T03:53:47.503Z,55.30
2018-12-26T03:56:15.767Z,56.43
2018-12-26T03:58:44.032Z,53.10
2018-12-26T04:01:12.323Z,54.47
2018-12-26T04:03:40.589Z,64.07
2018-12-26T04:06:08.864Z,60.73
2018-12-26T04:08:37.230Z,59.87
2018-12-26T04:11:05.466Z,56.27
2018-12-26T04:13:34.024Z,55.03
2018-12-26T04:16:02.398Z,52.30
2018-12-26T04:18:30.819Z,54.97
2018-12-26T04:20:59.077Z,57.23
2018-12-26T04:23:27.408Z,64.30
2018-12-26T04:25:55.704Z,57.93
2018-12-26T04:28:23.946Z,58.13
2018-12-26T04:30:52.208Z,58.70
2018-12-26T04:33:20.484Z,62.50
2018-12-26T04:35:48.742Z,60.97
2018-12-26T04:38:17.054Z,59.80
2018-12-26T04:40:47.134Z,66.23
2018-12-26T04:43:15.426Z,61.70
2018-12-26T04:45:43.721Z,70.33
2018-12-26T04:48:12.001Z,70.10
2018-12-26T04:50:40.253Z,63.60
2018-12-26T04:53:08.548Z,64.90
2018-12-26T04:55:36.830Z,63.97
2018-12-26T04:58:05.079Z,62.10
2018-12-26T05:00:33.375Z,62.27
2018-12-26T05:03:01.658Z,57.60
2018-12-26T05:05:29.913Z,62.50
2018-12-26T05:07:58.171Z,56.23
2018-12-26T05:10:26.488Z,55.77
2018-12-26T05:12:54.747Z,66.80
2018-12-26T05:15:23.012Z,68.00
2018-12-26T05:17:51.309Z,77.63
2018-12-26T05:20:19.573Z,87.03
2018-12-26T05:22:47.833Z,84.03
2018-12-26T05:25:16.187Z,88.57
2018-12-26T05:27:44.508Z,90.77
2018-12-26T05:30:12.768Z,81.00
2018-12-26T05:32:41.096Z,91.77
2018-12-26T05:35:09.436Z,89.50
2018-12-26T05:37:37.687Z,88.20
2018-12-26T05:40:06.806Z,84.73
2018-12-26T05:42:35.109Z,84.97
2018-12-26T05:45:03.365Z,90.20
2018-12-26T05:47:31.685Z,104.03
2018-12-26T05:50:00.087Z,113.67
2018-12-26T05:52:28.490Z,111.37
2018-12-26T05:54:56.827Z,109.90
2018-12-26T05:57:25.198Z,106.17
2018-12-26T05:59:53.481Z,112.43
2018-12-26T06:02:21.810Z,103.17
2018-12-26T06:04:50.154Z,107.83
2018-12-26T06:07:18.418Z,105.13
2018-12-26T06:09:48.426Z,112.37
2018-12-26T06:12:16.716Z,116.53
2018-12-26T06:14:45.020Z,104.57
2018-12-26T06:17:13.339Z,106.07
2018-12-26T06:19:41.611Z,105.00
2018-12-26T06:22:09.862Z,105.60
2018-12-26T06:24:38.123Z,109.87
2018-12-26T06:27:06.471Z,113.30
2018-12-26T06:29:34.715Z,121.17
2018-12-26T06:32:03.066Z,105.37
2018-12-26T06:34:31.331Z,109.90
2018-12-26T06:36:59.621Z,104.27
2018-12-26T06:39:28.105Z,96.00
2018-12-26T06:41:56.491Z,106.40
2018-12-26T06:44:24.824Z,98.90
2018-12-26T06:46:53.479Z,109.53
2018-12-26T06:49:21.792Z,94.53
2018-12-26T06:51:50.332Z,99.30
2018-12-26T06:54:18.753Z,90.40
2018-12-26T06:56:47.181Z,88.67
2018-12-26T06:59:15.486Z,88.90
2018-12-26T07:01:43.736Z,85.00
2018-12-26T07:04:12.122Z,90.00
2018-12-26T07:06:40.582Z,87.90
2018-12-26T07:09:09.104Z,83.63
2018-12-26T07:11:37.429Z,80.70
2018-12-26T07:14:05.792Z,82.10
2018-12-26T07:16:34.424Z,83.13
2018-12-26T07:19:02.785Z,73.30
2018-12-26T07:21:32.735Z,78.63
2018-12-26T07:24:01.032Z,77.73
2018-12-26T07:26:29.389Z,73.50
2018-12-26T07:28:57.695Z,68.10
2018-12-26T07:31:26.090Z,68.37
2018-12-26T07:33:54.475Z,75.03
2018-12-26T07:36:22.816Z,71.33
2018-12-26T07:38:51.158Z,71.40
2018-12-26T07:41:19.568Z,74.77
2018-12-26T07:43:47.986Z,69.00
2018-12-26T07:46:16.344Z,69.20
2018-12-26T07:48:44.645Z,73.50
2018-12-26T07:51:13.059Z,71.27
2018-12-26T07:53:41.399Z,75.17
2018-12-26T07:56:09.719Z,79.70
2018-12-26T07:58:38.005Z,79.70
2018-12-26T08:01:06.423Z,83.47
2018-12-26T08:03:35.025Z,76.93
2018-12-26T08:06:03.813Z,79.63
2018-12-26T08:08:32.500Z,82.93
2018-12-26T08:11:01.126Z,70.73
2018-12-26T08:13:29.743Z,74.73
2018-12-26T08:15:58.515Z,73.10
2018-12-26T08:18:27.144Z,69.93
2018-12-26T08:20:55.549Z,72.47
2018-12-26T08:23:23.903Z,72.83
2018-12-26T08:25:52.295Z,74.57
2018-12-26T08:28:26.617Z,69.27
2018-12-26T08:30:50.829Z,76.63
2018-12-26T08:33:19.233Z,87.23
2018-12-26T08:35:47.547Z,90.07
2018-12-26T08:38:15.981Z,78.07
2018-12-26T08:40:44.405Z,85.23
2018-12-26T08:43:12.718Z,80.93
2018-12-26T08:45:41.158Z,87.60
2018-12-26T08:48:09.479Z,85.40
2018-12-26T08:50:37.922Z,93.93
2018-12-26T08:53:06.262Z,86.07
2018-12-26T08:55:34.557Z,92.23
2018-12-26T08:58:03.003Z,81.90
2018-12-26T09:00:31.266Z,92.87
2018-12-26T09:02:59.566Z,92.60
2018-12-26T09:05:27.876Z,79.77
2018-12-26T09:07:56.188Z,80.17
2018-12-26T09:10:24.557Z,100.87
2018-12-26T09:12:52.817Z,77.70
2018-12-26T09:15:21.115Z,71.83
2018-12-26T09:17:49.491Z,76.23
2018-12-26T09:20:17.876Z,81.40
2018-12-26T09:22:46.200Z,70.83
2018-12-26T09:25:14.484Z,69.97
2018-12-26T09:27:42.767Z,70.77
2018-12-26T09:30:11.135Z,71.30
2018-12-26T09:32:39.412Z,79.83
2018-12-26T09:35:09.007Z,67.13
2018-12-26T09:37:37.276Z,80.33
2018-12-26T09:40:08.155Z,69.93
2018-12-26T09:42:36.524Z,64.07
2018-12-26T09:45:07.066Z,66.07
2018-12-26T09:47:35.363Z,58.53
2018-12-26T09:50:04.000Z,59.17
2018-12-26T09:52:32.283Z,56.47
2018-12-26T09:55:00.586Z,63.60
2018-12-26T09:57:28.863Z,70.97
2018-12-26T09:59:57.163Z,63.60
2018-12-26T10:02:25.421Z,64.60
2018-12-26T10:04:53.772Z,75.30
2018-12-26T10:07:22.072Z,81.10
2018-12-26T10:09:50.369Z,78.83
2018-12-26T10:12:18.751Z,87.07
2018-12-26T10:14:47.091Z,81.87
2018-12-26T10:17:15.365Z,92.70
2018-12-26T10:19:43.675Z,81.50
2018-12-26T10:22:11.959Z,69.43
2018-12-26T10:24:40.367Z,65.53
2018-12-26T10:27:08.727Z,70.87
2018-12-26T10:29:37.027Z,74.27
2018-12-26T10:32:05.334Z,78.87
2018-12-26T10:34:33.591Z,76.97
2018-12-26T10:37:01.850Z,80.00
2018-12-26T10:39:30.143Z,79.20
2018-12-26T10:41:58.437Z,78.00
2018-12-26T10:44:26.738Z,84.33
2018-12-26T10:46:55.016Z,76.40
2018-12-26T10:49:23.309Z,66.97
2018-12-26T10:51:51.572Z,64.17
2018-12-26T10:54:19.843Z,70.07
2018-12-26T10:56:48.193Z,69.53
2018-12-26T10:59:16.499Z,69.47
2018-12-26T11:01:44.781Z,66.97
2018-12-26T11:04:13.096Z,76.90
2018-12-26T11:06:41.354Z,68.10
2018-12-26T11:09:09.728Z,63.53
2018-12-26T11:11:38.015Z,65.80
2018-12-26T11:14:06.370Z,66.10
2018-12-26T11:16:34.631Z,74.47
2018-12-26T11:19:03.003Z,56.63
2018-12-26T11:21:31.513Z,55.37
2018-12-26T11:23:59.797Z,65.10
2018-12-26T11:26:28.069Z,59.03
2018-12-26T11:28:56.334Z,58.47
2018-12-26T11:31:24.714Z,59.23
2018-12-26T11:33:53.100Z,59.33
2018-12-26T11:36:21.493Z,62.70
2018-12-26T11:38:49.794Z,61.63
2018-12-26T11:41:18.097Z,56.73
2018-12-26T11:43:46.378Z,56.70
2018-12-26T11:46:14.756Z,63.33
2018-12-26T11:48:43.149Z,71.20
2018-12-26T11:51:11.415Z,62.67
2018-12-26T11:53:39.727Z,63.77
2018-12-26T11:56:08.053Z,65.70
2018-12-26T11:58:36.424Z,58.13
2018-12-26T12:01:04.756Z,59.00
2018-12-26T12:03:33.067Z,65.57
2018-12-26T12:06:01.562Z,63.80
2018-12-26T12:08:29.903Z,58.77
2018-12-26T12:10:58.219Z,62.40
2018-12-26T12:13:26.540Z,60.80
2018-12-26T12:15:54.867Z,62.70
2018-12-26T12:18:23.243Z,66.40
2018-12-26T12:20:51.579Z,69.43
2018-12-26T12:23:19.923Z,63.40
2018-12-26T12:25:48.403Z,65.57
2018-12-26T12:28:16.862Z,61.33
2018-12-26T12:30:45.295Z,65.63
2018-12-26T12:33:13.627Z,60.77
2018-12-26T12:35:42.041Z,60.00
2018-12-26T12:38:10.493Z,54.20
2018-12-26T12:40:38.822Z,52.77
2018-12-26T12:43:08.915Z,53.70
2018-12-26T12:45:37.252Z,54.63
2018-12-26T12:48:05.728Z,57.63
2018-12-26T12:50:34.081Z,52.87
2018-12-26T12:53:02.358Z,55.13
2018-12-26T12:55:30.679Z,49.20
2018-12-26T12:57:59.079Z,51.87
2018-12-26T13:00:27.390Z,54.50
2018-12-26T13:03:00.326Z,47.97
2018-12-26T13:05:25.983Z,47.40
2018-12-26T13:07:54.379Z,46.77
2018-12-26T13:10:23.763Z,46.37
2018-12-26T13:12:52.229Z,43.47
2018-12-26T13:15:20.659Z,42.43
2018-12-26T13:17:48.977Z,41.93
2018-12-26T13:20:17.416Z,49.70
2018-12-26T13:22:45.836Z,49.27
2018-12-26T13:25:14.209Z,48.67
2018-12-26T13:27:42.529Z,45.23
2018-12-26T13:30:11.079Z,49.50
2018-12-26T13:32:39.556Z,50.73
2018-12-26T13:35:07.938Z,47.43
2018-12-26T13:37:42.687Z,48.00
2018-12-26T13:40:11.043Z,44.47
2018-12-26T13:42:39.366Z,43.30
2018-12-26T13:45:07.835Z,42.13
2018-12-26T13:47:36.363Z,45.97
2018-12-26T13:50:05.574Z,48.00
2018-12-26T13:52:34.941Z,48.17
2018-12-26T13:55:03.357Z,46.10
2018-12-26T13:57:31.693Z,47.17
2018-12-26T14:00:02.392Z,50.63
2018-12-26T14:02:29.990Z,53.13
2018-12-26T14:04:58.510Z,53.73
2018-12-26T14:07:26.733Z,52.70
2018-12-26T14:09:55.041Z,51.57
2018-12-26T14:12:23.455Z,44.77
2018-12-26T14:14:51.700Z,50.07
2018-12-26T14:17:20.147Z,59.07
2018-12-26T14:19:48.507Z,55.83
2018-12-26T14:22:17.057Z,53.87
2018-12-26T14:24:45.399Z,56.60
2018-12-26T14:27:13.763Z,54.90
2018-12-26T14:29:42.570Z,51.93
2018-12-26T14:32:11.121Z,53.20
2018-12-26T14:34:39.538Z,55.17
2018-12-26T14:37:07.904Z,49.10
2018-12-26T14:39:36.235Z,57.50
2018-12-26T14:42:04.614Z,53.63
2018-12-26T14:44:33.002Z,55.53
2018-12-26T14:47:01.453Z,56.80
2018-12-26T14:49:29.995Z,53.80
2018-12-26T14:51:59.289Z,56.27
2018-12-26T14:54:27.642Z,53.73
2018-12-26T14:56:56.160Z,55.73
2018-12-26T14:59:24.482Z,54.63
2018-12-26T15:01:52.883Z,58.97
2018-12-26T15:04:21.278Z,56.90
2018-12-26T15:06:49.782Z,55.77
2018-12-26T15:09:18.174Z,52.97
2018-12-26T15:11:46.546Z,57.83
2018-12-26T15:14:15.017Z,58.17
2018-12-26T15:16:43.471Z,55.80
2018-12-26T15:19:18.561Z,59.03
2018-12-26T15:21:46.884Z,59.67
2018-12-26T15:24:15.269Z,57.20
2018-12-26T15:26:43.571Z,57.77
2018-12-26T15:29:11.905Z,68.13
2018-12-26T15:31:40.297Z,70.43
2018-12-26T15:34:08.600Z,73.73
2018-12-26T15:36:36.976Z,70.03
2018-12-26T15:39:07.964Z,71.80
2018-12-26T15:41:36.247Z,64.37
2018-12-26T15:44:04.500Z,62.60
2018-12-26T15:46:32.753Z,67.33
2018-12-26T15:49:01.010Z,63.60
2018-12-26T15:51:29.269Z,66.13
2018-12-26T15:53:57.548Z,64.90
2018-12-26T15:56:25.803Z,67.33
2018-12-26T15:58:54.125Z,74.17
2018-12-26T16:01:23.369Z,67.80
2018-12-26T16:03:51.628Z,71.07
2018-12-26T16:06:19.899Z,71.97
2018-12-26T16:08:48.153Z,67.50
2018-12-26T16:11:16.411Z,68.77
2018-12-26T16:13:44.661Z,71.43
2018-12-26T16:16:12.921Z,78.57
2018-12-26T16:18:41.198Z,71.67
2018-12-26T16:21:09.456Z,71.90
2018-12-26T16:23:37.703Z,68.27
2018-12-26T16:26:05.978Z,72.60
2018-12-26T16:28:34.229Z,69.63
2018-12-26T16:31:02.512Z,64.93
2018-12-26T16:33:30.765Z,66.87
2018-12-26T16:35:59.018Z,68.77
2018-12-26T16:38:27.267Z,75.67
2018-12-26T16:40:55.533Z,70.77
2018-12-26T16:43:23.814Z,74.33
2018-12-26T16:45:52.062Z,74.90
2018-12-26T16:48:20.347Z,73.87
2018-12-26T16:50:48.603Z,73.80
2018-12-26T16:53:16.854Z,74.13
2018-12-26T16:55:45.151Z,65.27
2018-12-26T16:58:13.367Z,62.97
2018-12-26T17:00:41.643Z,63.67
2018-12-26T17:03:09.899Z,70.03
2018-12-26T17:05:38.144Z,71.33
2018-12-26T17:08:06.411Z,68.23
2018-12-26T17:10:34.795Z,69.90
2018-12-26T17:13:03.060Z,71.13
2018-12-26T17:15:31.376Z,67.80
2018-12-26T17:17:59.656Z,72.80
2018-12-26T17:20:27.909Z,71.63
2018-12-26T17:22:56.172Z,68.73
2018-12-26T17:25:24.418Z,65.37
2018-12-26T17:27:52.670Z,69.77
2018-12-26T17:30:20.979Z,71.00
2018-12-26T17:32:49.235Z,71.93
2018-12-26T17:35:17.487Z,77.43
2018-12-26T17:37:46.680Z,77.67
2018-12-26T17:40:14.947Z,75.03
2018-12-26T17:42:43.243Z,74.30
2018-12-26T17:45:12.358Z,71.07
2018-12-26T17:47:40.613Z,75.20
2018-12-26T17:50:40.801Z,76.97
2018-12-26T17:53:12.292Z,75.57
2018-12-26T17:56:02.062Z,78.00
2018-12-26T17:58:33.577Z,77.50
2018-12-26T18:01:12.663Z,72.97
2018-12-26T18:03:35.090Z,81.77
2018-12-26T18:06:03.333Z,82.77
2018-12-26T18:08:31.615Z,81.80
2018-12-26T18:10:59.930Z,78.87
2018-12-26T18:13:28.174Z,76.70
2018-12-26T18:15:56.426Z,88.63
2018-12-26T18:18:24.677Z,80.00
2018-12-26T18:20:52.959Z,85.60
2018-12-26T18:23:21.293Z,89.47
2018-12-26T18:25:49.542Z,86.80
2018-12-26T18:28:17.796Z,87.97
2018-12-26T18:30:46.050Z,85.53
2018-12-26T18:33:14.326Z,77.43
2018-12-26T18:35:42.581Z,76.90
2018-12-26T18:38:10.857Z,81.77
2018-12-26T18:40:39.108Z,92.90
2018-12-26T18:43:07.368Z,77.60
2018-12-26T18:45:35.625Z,78.47
2018-12-26T18:48:03.878Z,80.03
2018-12-26T18:50:32.155Z,83.87
2018-12-26T18:53:00.404Z,80.77
2018-12-26T18:55:28.660Z,85.03
2018-12-26T18:57:56.909Z,86.53
2018-12-26T19:00:25.156Z,83.93
2018-12-26T19:02:53.442Z,85.80
2018-12-26T19:05:21.693Z,83.73
2018-12-26T19:07:49.953Z,83.90
2018-12-26T19:10:18.490Z,83.10
2018-12-26T19:12:46.736Z,85.83
2018-12-26T19:15:16.050Z,86.37
2018-12-26T19:17:45.211Z,91.17
2018-12-26T19:20:13.885Z,90.33
2018-12-26T19:22:43.793Z,88.90
2018-12-26T19:25:27.282Z,97.30
2018-12-26T19:27:55.573Z,97.63
2018-12-26T19:30:24.021Z,87.53
2018-12-26T19:32:52.302Z,88.77
2018-12-26T19:35:21.947Z,82.90
2018-12-26T19:37:50.318Z,86.37
2018-12-26T19:40:18.576Z,82.40
2018-12-26T19:42:47.509Z,139.03
2018-12-26T19:45:17.966Z,96.93
2018-12-26T19:47:46.479Z,90.60
2018-12-26T19:50:14.817Z,88.20
2018-12-26T19:52:43.197Z,83.07
2018-12-26T19:55:13.114Z,87.43
2018-12-26T19:57:41.434Z,90.87
2018-12-26T20:00:10.830Z,94.80
2018-12-26T20:02:39.157Z,90.83
2018-12-26T20:05:09.193Z,82.40
2018-12-26T20:07:39.314Z,85.10
2018-12-26T20:10:09.788Z,92.70
2018-12-26T20:12:38.109Z,90.03
2018-12-26T20:15:07.504Z,85.43
2018-12-26T20:17:35.905Z,82.43
2018-12-26T20:20:06.118Z,83.77
2018-12-26T20:22:34.483Z,82.20
2018-12-26T20:25:02.738Z,85.43
2018-12-26T20:27:31.025Z,81.87
2018-12-26T20:29:59.345Z,83.27
2018-12-26T20:32:27.601Z,90.40
2018-12-26T20:34:56.098Z,93.47
2018-12-26T20:37:24.396Z,91.07
2018-12-26T20:39:52.778Z,89.10
2018-12-26T20:42:21.079Z,93.57
2018-12-26T20:44:49.407Z,81.87
2018-12-26T20:47:17.687Z,83.63
2018-12-26T20:49:46.039Z,81.30
2018-12-26T20:52:14.379Z,87.07
2018-12-26T20:54:42.720Z,91.03
2018-12-26T20:57:11.164Z,87.30
2018-12-26T20:59:39.453Z,93.47
2018-12-26T21:02:07.720Z,90.00
2018-12-26T21:04:35.964Z,89.73
2018-12-26T21:07:04.236Z,96.80
2018-12-26T21:09:32.566Z,99.00
2018-12-26T21:12:00.919Z,100.27
2018-12-26T21:14:29.288Z,100.83
2018-12-26T21:16:57.600Z,103.33
2018-12-26T21:19:25.856Z,102.10
2018-12-26T21:21:54.131Z,107.83
2018-12-26T21:24:22.404Z,101.67
2018-12-26T21:26:50.665Z,94.70
2018-12-26T21:29:19.014Z,91.90
2018-12-26T21:31:47.271Z,95.67
2018-12-26T21:34:15.527Z,92.90
2018-12-26T21:36:43.924Z,91.43
2018-12-26T21:39:12.204Z,91.37
2018-12-26T21:41:40.519Z,90.40
2018-12-26T21:44:08.829Z,89.67
2018-12-26T21:46:37.293Z,97.27
2018-12-26T21:49:05.570Z,94.80
2018-12-26T21:51:33.819Z,87.10
2018-12-26T21:54:02.162Z,90.20
2018-12-26T21:56:30.525Z,81.53
2018-12-26T21:59:01.797Z,93.60
2018-12-26T22:01:37.079Z,90.47
2018-12-26T22:04:06.973Z,97.13
2018-12-26T22:06:35.364Z,92.77
2018-12-26T22:09:04.281Z,89.00
2018-12-26T22:11:32.524Z,90.53
2018-12-26T22:14:00.875Z,87.90
2018-12-26T22:16:29.146Z,89.00
2018-12-26T22:18:59.473Z,82.23
2018-12-26T22:21:27.699Z,75.73
2018-12-26T22:23:55.962Z,86.37
2018-12-26T22:26:24.222Z,81.20
2018-12-26T22:28:52.487Z,81.10
2018-12-26T22:31:20.863Z,84.93
2018-12-26T22:33:49.111Z,82.83
2018-12-26T22:36:17.456Z,82.10
2018-12-26T22:38:45.879Z,79.80
2018-12-26T22:41:14.173Z,86.87
2018-12-26T22:43:42.440Z,87.67
2018-12-26T22:46:10.713Z,83.10
2018-12-26T22:48:38.996Z,82.67
2018-12-26T22:51:08.895Z,83.70
2018-12-26T22:53:37.226Z,91.43
2018-12-26T22:56:05.529Z,85.87
2018-12-26T22:58:33.936Z,77.23
2018-12-26T23:01:02.262Z,81.37
2018-12-26T23:03:30.714Z,83.00
2018-12-26T23:05:59.223Z,77.37
2018-12-26T23:08:28.485Z,79.00
2018-12-26T23:10:56.879Z,85.93
2018-12-26T23:13:25.155Z,83.50
2018-12-26T23:15:53.516Z,88.77
2018-12-26T23:18:22.815Z,90.47
2018-12-26T23:20:51.162Z,86.83
2018-12-26T23:23:19.409Z,92.93
2018-12-26T23:25:47.689Z,93.30
2018-12-26T23:28:16.029Z,86.03
2018-12-26T23:30:44.293Z,78.20
2018-12-26T23:33:12.561Z,89.87
2018-12-26T23:35:40.896Z,83.23
2018-12-26T23:38:09.263Z,84.53
2018-12-26T23:40:37.522Z,92.30
2018-12-26T23:43:05.845Z,91.50
2018-12-26T23:45:34.141Z,90.83
2018-12-26T23:48:02.484Z,89.30
2018-12-26T23:50:30.796Z,87.47
2018-12-26T23:52:59.153Z,89.90
2018-12-26T23:55:27.408Z,87.57
2018-12-26T23:57:55.717Z,81.67
